createdAt,value
2023-01-23T00:01:34.236Z,2.33
2023-01-23T00:04:01.355Z,2.70
2023-01-23T00:06:28.226Z,2.80
2023-01-23T00:08:56.686Z,2.60
2023-01-23T00:11:24.828Z,2.70
2023-01-23T00:13:51.954Z,2.90
2023-01-23T00:16:19.821Z,3.10
2023-01-23T00:18:46.823Z,2.73
2023-01-23T00:21:14.993Z,2.70
2023-01-23T00:23:45.271Z,2.30
2023-01-23T00:26:15.844Z,2.20
2023-01-23T00:28:43.043Z,2.20
2023-01-23T00:31:12.986Z,2.17
2023-01-23T00:33:39.985Z,2.20
2023-01-23T00:36:09.381Z,2.70
2023-01-23T00:38:36.075Z,2.73
2023-01-23T00:41:03.332Z,2.30
2023-01-23T00:43:30.495Z,2.30
2023-01-23T00:45:57.261Z,2.20
2023-01-23T00:48:23.968Z,2.40
2023-01-23T00:50:50.689Z,2.53
2023-01-23T00:53:17.199Z,3.50
2023-01-23T00:55:43.683Z,4.87
2023-01-23T00:58:10.133Z,4.83
2023-01-23T01:00:37.387Z,6.00
2023-01-23T01:03:04.358Z,6.07
2023-01-23T01:05:30.815Z,4.57
2023-01-23T01:07:57.307Z,3.97
2023-01-23T01:10:25.651Z,3.00
2023-01-23T01:12:52.355Z,3.00
2023-01-23T01:15:18.806Z,3.20
2023-01-23T01:17:45.330Z,5.30
2023-01-23T01:20:12.082Z,6.13
2023-01-23T01:22:38.513Z,4.73
2023-01-23T01:25:05.324Z,3.33
2023-01-23T01:27:31.792Z,4.70
2023-01-23T01:29:58.206Z,3.60
2023-01-23T01:32:24.665Z,3.23
2023-01-23T01:34:51.645Z,4.37
2023-01-23T01:37:18.155Z,3.90
2023-01-23T01:39:44.620Z,3.53
2023-01-23T01:42:11.063Z,2.63
2023-01-23T01:44:52.820Z,2.57
2023-01-23T01:47:19.218Z,2.50
2023-01-23T01:49:45.665Z,2.50
2023-01-23T01:52:13.388Z,2.67
2023-01-23T01:54:42.784Z,2.50
2023-01-23T01:57:24.641Z,2.37
2023-01-23T01:59:56.219Z,2.70
2023-01-23T02:02:28.584Z,2.77
2023-01-23T02:04:57.908Z,2.70
2023-01-23T02:07:27.837Z,2.60
2023-01-23T02:09:54.445Z,2.43
2023-01-23T02:12:20.925Z,2.60
2023-01-23T02:14:47.405Z,2.70
2023-01-23T02:17:13.831Z,2.80
2023-01-23T02:19:52.022Z,2.50
2023-01-23T02:22:21.398Z,2.40
2023-01-23T02:24:59.088Z,2.40
2023-01-23T02:27:25.603Z,2.57
2023-01-23T02:29:52.556Z,2.60
2023-01-23T02:32:19.719Z,2.70
2023-01-23T02:34:46.173Z,2.30
2023-01-23T02:37:12.594Z,2.50
2023-01-23T02:39:39.679Z,2.30
2023-01-23T02:42:06.640Z,2.50
2023-01-23T02:44:33.076Z,2.50
2023-01-23T02:47:00.767Z,2.40
2023-01-23T02:49:27.451Z,2.90
2023-01-23T02:51:55.304Z,2.73
2023-01-23T02:54:22.702Z,2.60
2023-01-23T02:56:49.343Z,2.50
2023-01-23T02:59:34.550Z,2.30
2023-01-23T03:02:01.086Z,2.60
2023-01-23T03:04:27.523Z,2.60
2023-01-23T03:06:53.967Z,2.57
2023-01-23T03:09:20.469Z,2.53
2023-01-23T03:11:47.318Z,2.50
2023-01-23T03:14:15.084Z,2.57
2023-01-23T03:16:42.963Z,2.67
2023-01-23T03:19:09.838Z,2.50
2023-01-23T03:21:40.573Z,2.57
2023-01-23T03:24:08.969Z,2.70
2023-01-23T03:26:37.693Z,2.50
2023-01-23T03:29:22.607Z,2.67
2023-01-23T03:31:49.074Z,2.53
2023-01-23T03:34:17.929Z,2.70
2023-01-23T03:36:44.769Z,2.60
2023-01-23T03:39:29.794Z,2.73
2023-01-23T03:41:56.328Z,2.37
2023-01-23T03:44:22.877Z,2.33
2023-01-23T03:46:50.266Z,2.60
2023-01-23T03:49:16.957Z,2.63
2023-01-23T03:51:43.532Z,2.70
2023-01-23T03:54:10.548Z,2.53
2023-01-23T03:56:37.313Z,2.50
2023-01-23T03:59:03.985Z,2.57
2023-01-23T04:01:30.416Z,1.93
2023-01-23T04:03:56.866Z,2.40
2023-01-23T04:06:23.318Z,2.17
2023-01-23T04:08:49.750Z,2.40
2023-01-23T04:11:16.218Z,2.63
2023-01-23T04:13:42.651Z,2.30
2023-01-23T04:16:09.150Z,2.30
2023-01-23T04:18:35.777Z,2.17
2023-01-23T04:21:02.222Z,2.00
2023-01-23T04:23:28.646Z,2.30
2023-01-23T04:25:55.317Z,2.37
2023-01-23T04:28:21.803Z,2.23
2023-01-23T04:30:49.446Z,2.50
2023-01-23T04:33:15.924Z,2.33
2023-01-23T04:35:48.937Z,2.20
2023-01-23T04:38:15.445Z,2.40
2023-01-23T04:40:41.947Z,2.07
2023-01-23T04:43:09.395Z,2.60
2023-01-23T04:45:37.103Z,2.90
2023-01-23T04:48:03.664Z,2.10
2023-01-23T04:50:30.080Z,2.00
2023-01-23T04:52:58.360Z,2.10
2023-01-23T04:55:24.960Z,1.90
2023-01-23T04:57:51.480Z,2.10
2023-01-23T05:00:18.545Z,1.90
2023-01-23T05:02:48.742Z,2.23
2023-01-23T05:05:17.336Z,1.87
2023-01-23T05:07:43.933Z,1.90
2023-01-23T05:10:10.823Z,2.20
2023-01-23T05:12:37.305Z,2.00
2023-01-23T05:15:03.865Z,1.90
2023-01-23T05:17:30.354Z,2.20
2023-01-23T05:19:56.806Z,2.10
2023-01-23T05:22:23.253Z,1.90
2023-01-23T05:24:49.735Z,2.47
2023-01-23T05:27:16.299Z,2.17
2023-01-23T05:29:42.752Z,2.13
2023-01-23T05:32:09.176Z,2.93
2023-01-23T05:34:35.668Z,2.70
2023-01-23T05:37:02.111Z,2.90
2023-01-23T05:39:28.597Z,2.70
2023-01-23T05:41:55.062Z,2.80
2023-01-23T05:44:21.502Z,2.50
2023-01-23T05:46:47.992Z,2.30
2023-01-23T05:49:14.482Z,2.57
2023-01-23T05:51:41.120Z,2.60
2023-01-23T05:54:07.679Z,2.53
2023-01-23T05:56:34.145Z,3.10
2023-01-23T05:59:00.631Z,2.90
2023-01-23T06:01:27.151Z,2.30
2023-01-23T06:03:53.643Z,3.13
2023-01-23T06:06:20.351Z,2.73
2023-01-23T06:08:46.851Z,2.10
2023-01-23T06:11:13.307Z,1.90
2023-01-23T06:13:39.733Z,2.10
2023-01-23T06:16:06.672Z,2.10
2023-01-23T06:18:33.676Z,2.60
2023-01-23T06:21:01.163Z,2.50
2023-01-23T06:23:28.204Z,2.93
2023-01-23T06:25:54.797Z,2.97
2023-01-23T06:28:21.295Z,2.90
2023-01-23T06:30:47.913Z,2.77
2023-01-23T06:33:14.512Z,4.17
2023-01-23T06:35:40.971Z,2.50
2023-01-23T06:38:07.440Z,2.37
2023-01-23T06:40:33.898Z,2.50
2023-01-23T06:43:00.321Z,3.13
2023-01-23T06:45:26.759Z,3.10
2023-01-23T06:47:53.419Z,2.33
2023-01-23T06:50:20.162Z,2.87
2023-01-23T06:52:46.795Z,2.63
2023-01-23T06:55:14.582Z,2.40
2023-01-23T06:57:41.163Z,4.90
2023-01-23T07:00:08.161Z,3.00
2023-01-23T07:02:34.596Z,2.70
2023-01-23T07:05:01.030Z,2.30
2023-01-23T07:07:27.453Z,2.30
2023-01-23T07:09:53.876Z,2.37
2023-01-23T07:12:20.337Z,2.37
2023-01-23T07:14:46.770Z,2.10
2023-01-23T07:17:13.201Z,2.13
2023-01-23T07:19:39.610Z,2.60
2023-01-23T07:22:06.058Z,2.73
2023-01-23T07:24:32.630Z,2.53
2023-01-23T07:26:59.080Z,2.43
2023-01-23T07:29:25.528Z,2.03
2023-01-23T07:31:52.119Z,2.40
2023-01-23T07:34:18.612Z,2.33
2023-01-23T07:36:45.026Z,2.50
2023-01-23T07:39:11.638Z,2.90
2023-01-23T07:41:38.089Z,2.60
2023-01-23T07:44:04.487Z,2.47
2023-01-23T07:46:30.928Z,4.17
2023-01-23T07:48:57.380Z,3.20
2023-01-23T07:51:23.833Z,4.73
2023-01-23T07:53:50.356Z,3.30
2023-01-23T07:56:16.801Z,6.70
2023-01-23T07:58:43.205Z,4.60
2023-01-23T08:01:10.135Z,3.37
2023-01-23T08:03:36.627Z,2.23
2023-01-23T08:06:03.103Z,2.20
2023-01-23T08:08:30.769Z,2.20
2023-01-23T08:10:57.208Z,2.10
2023-01-23T08:13:23.621Z,6.70
2023-01-23T08:15:50.161Z,8.17
2023-01-23T08:18:16.756Z,3.50
2023-01-23T08:20:43.219Z,3.40
2023-01-23T08:23:09.656Z,3.13
2023-01-23T08:25:37.728Z,2.63
2023-01-23T08:28:04.222Z,3.00
2023-01-23T08:30:30.660Z,2.90
2023-01-23T08:32:57.272Z,2.90
2023-01-23T08:35:23.822Z,2.50
2023-01-23T08:37:50.281Z,2.50
2023-01-23T08:40:16.941Z,2.70
2023-01-23T08:42:43.384Z,2.60
2023-01-23T08:45:12.473Z,2.53
2023-01-23T08:47:39.288Z,3.03
2023-01-23T08:50:06.121Z,3.07
2023-01-23T08:52:34.777Z,2.90
2023-01-23T08:55:01.300Z,3.57
2023-01-23T08:57:27.719Z,3.33
2023-01-23T08:59:54.171Z,3.63
2023-01-23T09:02:22.188Z,3.40
2023-01-23T09:04:48.967Z,3.20
2023-01-23T09:07:15.459Z,3.70
2023-01-23T09:09:41.923Z,3.07
2023-01-23T09:12:08.402Z,3.33
2023-01-23T09:14:34.955Z,3.53
2023-01-23T09:17:01.492Z,3.30
2023-01-23T09:19:30.289Z,3.07
2023-01-23T09:21:57.124Z,3.27
2023-01-23T09:24:23.873Z,3.47
2023-01-23T09:26:50.399Z,3.23
2023-01-23T09:29:16.871Z,3.10
2023-01-23T09:31:43.507Z,3.30
2023-01-23T09:34:09.960Z,2.80
2023-01-23T09:36:42.964Z,2.57
2023-01-23T09:39:10.331Z,2.20
2023-01-23T09:41:39.280Z,2.03
2023-01-23T09:44:10.130Z,2.30
2023-01-23T10:44:54.429Z,2.50
2023-01-23T10:47:26.608Z,2.20
2023-01-23T10:49:53.230Z,2.30
2023-01-23T10:52:34.112Z,2.10
2023-01-23T10:55:00.942Z,2.47
2023-01-23T10:57:29.689Z,2.60
2023-01-23T11:00:08.401Z,2.57
2023-01-23T11:02:36.139Z,2.50
2023-01-23T11:05:13.307Z,2.40
2023-01-23T11:07:40.487Z,2.20
2023-01-23T11:10:09.997Z,2.20
2023-01-23T11:12:47.413Z,2.73
2023-01-23T11:15:27.581Z,2.40
2023-01-23T11:17:55.400Z,2.37
2023-01-23T11:20:33.401Z,2.40
2023-01-23T11:23:05.146Z,2.13
2023-01-23T11:25:33.181Z,2.40
2023-01-23T11:28:00.815Z,2.20
2023-01-23T11:30:34.741Z,2.37
2023-01-23T11:33:21.536Z,2.43
2023-01-23T11:35:48.049Z,2.00
2023-01-23T11:38:21.801Z,13.70
2023-01-23T11:40:54.068Z,8.20
2023-01-23T11:43:20.596Z,3.20
2023-01-23T11:45:50.146Z,2.20
2023-01-23T11:48:25.522Z,2.47
2023-01-23T11:50:58.786Z,2.20
2023-01-23T11:53:43.049Z,1.97
2023-01-23T11:56:15.736Z,2.40
2023-01-23T11:58:54.806Z,1.90
2023-01-23T12:01:31.315Z,1.90
2023-01-23T12:04:06.543Z,2.10
2023-01-23T12:06:33.078Z,1.90
2023-01-23T12:09:05.830Z,2.00
2023-01-23T12:11:37.194Z,2.20
2023-01-23T12:14:07.773Z,2.20
2023-01-23T12:16:48.467Z,2.77
2023-01-23T12:19:26.277Z,2.93
2023-01-23T12:21:58.787Z,2.57
2023-01-23T12:24:44.066Z,1.70
2023-01-23T12:27:13.556Z,2.00
2023-01-23T12:29:58.810Z,2.40
2023-01-23T12:32:28.335Z,2.17
2023-01-23T12:35:00.663Z,2.10
2023-01-23T12:37:31.112Z,2.50
2023-01-23T12:40:05.645Z,2.17
2023-01-23T12:42:41.482Z,2.00
2023-01-23T12:45:10.980Z,2.10
2023-01-23T12:47:58.089Z,2.70
2023-01-23T12:50:46.193Z,5.73
2023-01-23T12:53:17.292Z,2.60
2023-01-23T12:55:55.881Z,2.53
2023-01-23T12:58:24.357Z,2.20
2023-01-23T13:00:56.589Z,2.20
2023-01-23T13:03:37.276Z,2.30
2023-01-23T13:06:24.965Z,2.60
2023-01-23T13:09:18.737Z,2.00
2023-01-23T13:12:04.289Z,2.50
2023-01-23T13:14:43.494Z,2.10
2023-01-23T13:17:37.829Z,2.30
2023-01-23T13:20:37.926Z,1.90
2023-01-23T13:23:22.702Z,1.80
2023-01-23T13:25:49.634Z,2.03
2023-01-23T13:28:45.133Z,2.70
2023-01-23T13:31:24.883Z,2.07
2023-01-23T13:33:52.891Z,2.13
2023-01-23T13:36:20.350Z,2.60
2023-01-23T13:38:59.995Z,2.40
2023-01-23T13:41:33.281Z,2.37
2023-01-23T13:44:19.067Z,2.37
2023-01-23T14:24:23.370Z,3.40
2023-01-23T14:26:54.120Z,3.10
2023-01-23T14:29:22.176Z,2.70
2023-01-23T14:31:48.911Z,2.47
2023-01-23T14:34:18.659Z,2.60
2023-01-23T14:36:52.472Z,3.03
2023-01-23T14:39:23.487Z,2.70
2023-01-23T14:41:50.578Z,2.60
2023-01-23T14:44:21.786Z,2.60
2023-01-23T14:46:51.317Z,8.40
2023-01-23T14:49:21.026Z,3.03
2023-01-23T14:52:00.988Z,2.13
2023-01-23T14:54:32.585Z,2.10
2023-01-23T14:57:01.065Z,2.30
2023-01-23T14:59:32.740Z,2.30
2023-01-23T15:02:03.302Z,2.47
2023-01-23T15:04:31.724Z,2.33
2023-01-23T15:07:01.621Z,2.80
2023-01-23T15:09:31.040Z,2.50
2023-01-23T15:12:07.988Z,2.60
2023-01-23T15:14:38.535Z,3.33
2023-01-23T15:17:06.620Z,5.90
2023-01-23T15:19:35.642Z,4.83
2023-01-23T15:22:06.657Z,4.30
2023-01-23T15:24:33.278Z,3.27
2023-01-23T15:27:07.748Z,3.53
2023-01-23T15:29:34.897Z,5.00
2023-01-23T15:32:02.134Z,7.00
2023-01-23T15:34:33.092Z,14.47
2023-01-23T15:36:59.667Z,6.37
2023-01-23T15:39:34.187Z,4.13
2023-01-23T15:42:24.099Z,4.60
2023-01-23T15:44:50.595Z,3.70
2023-01-23T15:47:17.240Z,4.93
2023-01-23T15:49:44.008Z,4.93
2023-01-23T15:52:21.725Z,3.83
2023-01-23T15:54:49.559Z,3.53
2023-01-23T15:57:16.038Z,3.07
2023-01-23T15:59:42.593Z,3.20
2023-01-23T16:02:29.096Z,3.17
2023-01-23T16:04:56.511Z,2.40
2023-01-23T16:07:25.064Z,2.20
2023-01-23T16:09:52.459Z,2.13
2023-01-23T16:12:20.618Z,2.60
2023-01-23T16:14:47.635Z,3.07
2023-01-23T16:17:17.079Z,3.50
2023-01-23T16:19:44.022Z,4.50
2023-01-23T16:22:12.968Z,3.77
2023-01-23T16:24:39.780Z,4.27
2023-01-23T16:27:07.082Z,3.70
2023-01-23T16:29:34.458Z,3.60
2023-01-23T16:32:02.348Z,3.30
2023-01-23T16:34:29.420Z,2.90
2023-01-23T16:36:57.935Z,2.57
2023-01-23T16:39:26.939Z,3.60
2023-01-23T16:41:56.534Z,3.00
2023-01-23T16:44:26.406Z,4.20
2023-01-23T16:46:53.684Z,5.07
2023-01-23T16:49:20.996Z,4.53
2023-01-23T16:52:01.903Z,3.20
2023-01-23T16:54:28.628Z,4.60
2023-01-23T16:56:57.114Z,4.67
2023-01-23T16:59:27.082Z,4.97
2023-01-23T17:01:54.110Z,4.83
2023-01-23T17:04:21.488Z,4.90
2023-01-23T17:06:48.838Z,5.70
2023-01-23T17:09:16.520Z,4.53
2023-01-23T17:11:45.416Z,4.47
2023-01-23T17:14:15.633Z,4.00
2023-01-23T17:16:42.522Z,3.80
2023-01-23T17:19:35.461Z,3.90
2023-01-23T17:22:04.941Z,3.97
2023-01-23T17:24:31.748Z,3.70
2023-01-23T17:26:58.807Z,3.97
2023-01-23T17:29:25.654Z,3.60
2023-01-23T17:31:53.211Z,3.60
2023-01-23T17:34:23.521Z,4.50
2023-01-23T17:36:50.738Z,4.37
2023-01-23T17:39:17.368Z,3.33
2023-01-23T17:41:44.201Z,3.60
2023-01-23T17:44:12.298Z,3.43
2023-01-23T17:46:39.699Z,3.50
2023-01-23T17:49:26.399Z,3.80
2023-01-23T17:51:53.033Z,3.00
2023-01-23T17:54:19.985Z,4.37
2023-01-23T17:56:46.742Z,5.00
2023-01-23T17:59:13.466Z,7.67
2023-01-23T18:01:40.455Z,6.57
2023-01-23T18:04:18.654Z,7.33
2023-01-23T18:06:45.883Z,7.37
2023-01-23T18:09:13.546Z,6.63
2023-01-23T18:11:42.784Z,8.00
2023-01-23T18:14:27.968Z,7.73
2023-01-23T18:16:55.600Z,7.63
2023-01-23T18:19:22.344Z,7.97
2023-01-23T18:21:50.142Z,10.20
2023-01-23T18:24:28.415Z,12.80
2023-01-23T18:27:01.240Z,15.03
2023-01-23T18:29:43.990Z,11.33
2023-01-23T18:32:15.168Z,11.63
2023-01-23T18:34:44.435Z,15.70
2023-01-23T18:37:11.063Z,16.77
2023-01-23T18:39:52.578Z,17.77
2023-01-23T18:42:23.293Z,15.37
2023-01-23T18:44:56.486Z,13.73
2023-01-23T18:47:23.361Z,13.47
2023-01-23T18:49:50.419Z,11.80
2023-01-23T18:52:20.202Z,7.57
2023-01-23T18:54:57.604Z,5.07
2023-01-23T18:57:43.153Z,3.77
2023-01-23T19:00:20.050Z,2.77
2023-01-23T19:02:52.750Z,1.97
2023-01-23T19:05:30.109Z,1.60
2023-01-23T19:07:57.451Z,1.80
2023-01-23T19:10:25.263Z,2.00
2023-01-23T19:13:07.733Z,2.03
2023-01-23T19:15:46.561Z,2.00
2023-01-23T19:18:35.015Z,2.30
2023-01-23T19:21:13.456Z,2.13
2023-01-23T19:23:51.782Z,10.37
2023-01-23T19:26:18.815Z,29.37
2023-01-23T19:28:45.988Z,8.53
2023-01-23T19:31:23.239Z,3.30
2023-01-23T19:33:50.208Z,2.80
2023-01-23T19:36:17.324Z,2.80
2023-01-23T19:38:44.154Z,2.33
2023-01-23T19:41:19.863Z,2.47
2023-01-23T19:43:47.562Z,2.87
2023-01-23T19:46:14.173Z,3.53
2023-01-23T19:48:40.825Z,3.13
2023-01-23T19:51:10.700Z,3.20
2023-01-23T19:53:37.388Z,2.90
2023-01-23T19:56:04.241Z,2.33
2023-01-23T19:58:32.255Z,2.80
2023-01-23T20:00:59.581Z,2.83
2023-01-23T20:03:26.398Z,2.47
2023-01-23T20:05:53.332Z,2.40
2023-01-23T20:08:23.048Z,3.10
2023-01-23T20:10:49.776Z,3.13
2023-01-23T20:13:16.525Z,4.00
2023-01-23T20:15:43.140Z,4.20
2023-01-23T20:18:11.000Z,3.27
2023-01-23T20:20:37.757Z,2.07
2023-01-23T20:23:04.692Z,2.20
2023-01-23T20:25:31.416Z,3.90
2023-01-23T20:27:58.197Z,5.73
2023-01-23T20:30:25.293Z,6.27
2023-01-23T20:32:52.309Z,3.10
2023-01-23T20:35:19.113Z,2.40
2023-01-23T20:37:45.727Z,2.10
2023-01-23T20:40:13.898Z,2.20
2023-01-23T20:42:41.060Z,3.50
2023-01-23T20:45:08.131Z,6.60
2023-01-23T20:47:37.768Z,6.87
2023-01-23T20:50:04.949Z,5.40
2023-01-23T20:52:50.227Z,3.93
2023-01-23T20:55:16.974Z,4.27
2023-01-23T20:58:02.408Z,3.30
2023-01-23T21:00:29.488Z,2.10
2023-01-23T21:02:56.388Z,1.90
2023-01-23T21:05:23.660Z,3.60
2023-01-23T21:07:50.813Z,3.50
2023-01-23T21:10:17.604Z,3.80
2023-01-23T21:12:44.343Z,3.50
2023-01-23T21:15:12.685Z,2.83
2023-01-23T21:17:39.386Z,2.80
2023-01-23T21:20:06.285Z,3.97
2023-01-23T21:22:34.088Z,5.27
2023-01-23T21:25:00.902Z,6.50
2023-01-23T21:27:27.781Z,5.67
2023-01-23T21:29:55.408Z,3.10
2023-01-23T21:32:22.150Z,1.73
2023-01-23T21:34:48.772Z,1.60
2023-01-23T21:37:15.491Z,2.10
2023-01-23T21:39:42.200Z,2.00
2023-01-23T21:42:08.912Z,3.20
2023-01-23T21:44:35.979Z,4.07
2023-01-23T21:47:03.131Z,6.10
2023-01-23T21:49:31.494Z,6.07
2023-01-23T21:51:58.149Z,5.67
2023-01-23T21:54:24.951Z,3.53
2023-01-23T21:56:51.722Z,5.30
2023-01-23T21:59:18.327Z,5.17
2023-01-23T22:01:46.562Z,1.80
2023-01-23T22:04:15.202Z,1.80
2023-01-23T22:06:42.699Z,2.13
2023-01-23T22:09:09.919Z,1.90
2023-01-23T22:11:36.820Z,2.40
2023-01-23T22:14:04.549Z,2.50
2023-01-23T22:16:47.412Z,3.57
2023-01-23T22:19:15.972Z,4.33
2023-01-23T22:21:43.844Z,3.57
2023-01-23T22:24:10.392Z,3.93
2023-01-23T22:26:37.182Z,3.57
2023-01-23T22:29:03.624Z,3.30
2023-01-23T22:31:30.476Z,3.60
2023-01-23T22:33:56.994Z,3.87
2023-01-23T22:36:23.521Z,4.87
2023-01-23T22:38:50.521Z,3.30
2023-01-23T22:41:16.985Z,3.43
2023-01-23T22:43:43.615Z,3.73
2023-01-23T22:46:12.255Z,3.40
2023-01-23T22:48:39.292Z,3.40
2023-01-23T22:51:07.622Z,3.17
2023-01-23T22:53:34.092Z,3.93
2023-01-23T22:56:04.157Z,3.50
2023-01-23T22:58:30.703Z,2.97
2023-01-23T23:00:57.382Z,4.00
2023-01-23T23:03:24.137Z,3.57
2023-01-23T23:05:57.675Z,4.00
2023-01-23T23:08:24.258Z,2.47
2023-01-23T23:10:57.440Z,4.07
2023-01-23T23:13:23.889Z,4.70
2023-01-23T23:15:50.360Z,4.60
2023-01-23T23:18:16.794Z,5.33
2023-01-23T23:20:43.209Z,3.83
2023-01-23T23:23:12.030Z,1.90
2023-01-23T23:25:38.446Z,2.00
2023-01-23T23:28:05.169Z,2.23
2023-01-23T23:30:34.292Z,2.20
2023-01-23T23:33:00.754Z,2.30
2023-01-23T23:35:27.188Z,2.47
2023-01-23T23:37:53.712Z,4.60
2023-01-23T23:40:20.221Z,5.17
2023-01-23T23:42:46.652Z,6.70
2023-01-23T23:45:13.124Z,7.23
2023-01-23T23:47:39.589Z,5.93
2023-01-23T23:50:06.276Z,5.30
2023-01-23T23:52:35.432Z,4.87
2023-01-23T23:55:02.431Z,4.30
2023-01-23T23:57:28.876Z,3.27
2023-01-23T23:59:55.306Z,2.63
